sensor_id;sensor_type;location;lat;lon;timestamp;temperature;humidity
49731;DHT22;35622;52.008;5.426;2023-08-30T00:02:04;16.30;80.60
49731;DHT22;35622;52.008;5.426;2023-08-30T00:04:30;16.30;80.40
49731;DHT22;35622;52.008;5.426;2023-08-30T00:06:56;16.30;80.50
49731;DHT22;35622;52.008;5.426;2023-08-30T00:09:21;16.20;80.20
49731;DHT22;35622;52.008;5.426;2023-08-30T00:11:47;16.20;80.10
49731;DHT22;35622;52.008;5.426;2023-08-30T00:14:12;16.20;80.00
49731;DHT22;35622;52.008;5.426;2023-08-30T00:16:38;16.10;80.20
49731;DHT22;35622;52.008;5.426;2023-08-30T00:19:04;16.10;80.40
49731;DHT22;35622;52.008;5.426;2023-08-30T00:21:30;16.00;80.40
49731;DHT22;35622;52.008;5.426;2023-08-30T00:23:55;16.00;80.50
49731;DHT22;35622;52.008;5.426;2023-08-30T00:26:21;16.00;80.50
49731;DHT22;35622;52.008;5.426;2023-08-30T00:28:46;15.90;80.50
49731;DHT22;35622;52.008;5.426;2023-08-30T00:31:12;15.90;80.50
49731;DHT22;35622;52.008;5.426;2023-08-30T00:33:37;15.90;80.20
49731;DHT22;35622;52.008;5.426;2023-08-30T00:36:04;15.90;80.20
49731;DHT22;35622;52.008;5.426;2023-08-30T00:41:10;15.90;80.10
49731;DHT22;35622;52.008;5.426;2023-08-30T00:43:35;15.80;80.20
49731;DHT22;35622;52.008;5.426;2023-08-30T00:46:01;15.80;80.50
49731;DHT22;35622;52.008;5.426;2023-08-30T00:48:27;15.80;80.70
49731;DHT22;35622;52.008;5.426;2023-08-30T00:50:52;15.80;80.90
49731;DHT22;35622;52.008;5.426;2023-08-30T00:53:18;15.80;81.00
49731;DHT22;35622;52.008;5.426;2023-08-30T00:55:44;15.80;81.40
49731;DHT22;35622;52.008;5.426;2023-08-30T00:58:10;15.80;81.70
49731;DHT22;35622;52.008;5.426;2023-08-30T01:00:36;15.90;81.80
49731;DHT22;35622;52.008;5.426;2023-08-30T01:03:03;15.90;82.80
49731;DHT22;35622;52.008;5.426;2023-08-30T01:05:30;15.90;82.10
49731;DHT22;35622;52.008;5.426;2023-08-30T01:07:56;16.00;82.00
49731;DHT22;35622;52.008;5.426;2023-08-30T01:10:27;16.00;82.10
49731;DHT22;35622;52.008;5.426;2023-08-30T01:13:08;16.10;82.10
49731;DHT22;35622;52.008;5.426;2023-08-30T01:15:34;16.10;82.00
49731;DHT22;35622;52.008;5.426;2023-08-30T01:18:01;16.10;82.10
49731;DHT22;35622;52.008;5.426;2023-08-30T01:20:30;16.20;82.20
49731;DHT22;35622;52.008;5.426;2023-08-30T01:23:05;16.20;82.30
49731;DHT22;35622;52.008;5.426;2023-08-30T01:28:08;16.30;82.30
49731;DHT22;35622;52.008;5.426;2023-08-30T01:30:36;16.30;82.40
49731;DHT22;35622;52.008;5.426;2023-08-30T01:33:03;16.30;82.40
49731;DHT22;35622;52.008;5.426;2023-08-30T01:35:30;16.40;82.50
49731;DHT22;35622;52.008;5.426;2023-08-30T01:37:59;16.30;82.60
49731;DHT22;35622;52.008;5.426;2023-08-30T01:40:29;16.40;82.60
49731;DHT22;35622;52.008;5.426;2023-08-30T01:42:55;16.40;82.70
49731;DHT22;35622;52.008;5.426;2023-08-30T01:45:23;16.50;82.70
49731;DHT22;35622;52.008;5.426;2023-08-30T01:47:49;16.50;82.80
49731;DHT22;35622;52.008;5.426;2023-08-30T01:50:18;16.50;82.90
49731;DHT22;35622;52.008;5.426;2023-08-30T01:52:45;16.50;82.90
49731;DHT22;35622;52.008;5.426;2023-08-30T01:55:13;16.60;83.00
49731;DHT22;35622;52.008;5.426;2023-08-30T01:57:39;16.60;83.10
49731;DHT22;35622;52.008;5.426;2023-08-30T02:00:05;16.70;83.00
49731;DHT22;35622;52.008;5.426;2023-08-30T02:02:31;16.70;83.00
49731;DHT22;35622;52.008;5.426;2023-08-30T02:04:57;16.70;83.00
49731;DHT22;35622;52.008;5.426;2023-08-30T02:07:28;16.70;83.10
49731;DHT22;35622;52.008;5.426;2023-08-30T02:10:00;16.80;83.10
49731;DHT22;35622;52.008;5.426;2023-08-30T02:12:31;16.80;83.00
49731;DHT22;35622;52.008;5.426;2023-08-30T02:15:00;16.80;83.10
49731;DHT22;35622;52.008;5.426;2023-08-30T02:17:27;16.90;83.00
49731;DHT22;35622;52.008;5.426;2023-08-30T02:19:52;16.80;83.10
49731;DHT22;35622;52.008;5.426;2023-08-30T02:22:19;16.80;83.30
49731;DHT22;35622;52.008;5.426;2023-08-30T02:24:44;16.80;83.30
49731;DHT22;35622;52.008;5.426;2023-08-30T02:27:10;16.80;83.30
49731;DHT22;35622;52.008;5.426;2023-08-30T02:29:35;16.90;83.50
49731;DHT22;35622;52.008;5.426;2023-08-30T02:32:01;16.90;83.30
49731;DHT22;35622;52.008;5.426;2023-08-30T02:34:27;16.90;83.50
49731;DHT22;35622;52.008;5.426;2023-08-30T02:36:52;16.90;83.50
49731;DHT22;35622;52.008;5.426;2023-08-30T02:39:18;16.90;83.50
49731;DHT22;35622;52.008;5.426;2023-08-30T02:41:44;17.00;83.40
49731;DHT22;35622;52.008;5.426;2023-08-30T02:44:13;17.00;83.50
49731;DHT22;35622;52.008;5.426;2023-08-30T02:46:38;17.00;83.70
49731;DHT22;35622;52.008;5.426;2023-08-30T02:49:04;16.80;83.70
49731;DHT22;35622;52.008;5.426;2023-08-30T02:51:30;16.90;84.10
49731;DHT22;35622;52.008;5.426;2023-08-30T02:53:56;16.90;84.00
49731;DHT22;35622;52.008;5.426;2023-08-30T02:56:21;17.00;84.10
49731;DHT22;35622;52.008;5.426;2023-08-30T02:58:47;17.00;84.10
49731;DHT22;35622;52.008;5.426;2023-08-30T03:01:12;17.00;85.00
49731;DHT22;35622;52.008;5.426;2023-08-30T03:03:38;17.10;83.90
49731;DHT22;35622;52.008;5.426;2023-08-30T03:06:04;17.10;84.10
49731;DHT22;35622;52.008;5.426;2023-08-30T03:08:29;17.00;83.90
49731;DHT22;35622;52.008;5.426;2023-08-30T03:10:55;17.10;84.00
49731;DHT22;35622;52.008;5.426;2023-08-30T03:13:20;17.10;83.90
49731;DHT22;35622;52.008;5.426;2023-08-30T03:15:46;17.00;83.90
49731;DHT22;35622;52.008;5.426;2023-08-30T03:18:11;17.10;83.70
49731;DHT22;35622;52.008;5.426;2023-08-30T03:20:37;17.10;83.60
49731;DHT22;35622;52.008;5.426;2023-08-30T03:23:02;17.10;83.40
49731;DHT22;35622;52.008;5.426;2023-08-30T03:25:29;17.10;83.20
49731;DHT22;35622;52.008;5.426;2023-08-30T03:27:55;17.10;83.00
49731;DHT22;35622;52.008;5.426;2023-08-30T03:30:20;17.10;82.70
49731;DHT22;35622;52.008;5.426;2023-08-30T03:32:46;17.10;82.30
49731;DHT22;35622;52.008;5.426;2023-08-30T03:35:11;17.10;81.90
49731;DHT22;35622;52.008;5.426;2023-08-30T03:37:37;17.00;81.70
49731;DHT22;35622;52.008;5.426;2023-08-30T03:40:03;17.00;81.20
49731;DHT22;35622;52.008;5.426;2023-08-30T03:42:30;16.90;81.30
49731;DHT22;35622;52.008;5.426;2023-08-30T03:44:55;16.80;81.10
49731;DHT22;35622;52.008;5.426;2023-08-30T03:47:21;16.70;80.70
49731;DHT22;35622;52.008;5.426;2023-08-30T03:49:46;16.70;80.60
49731;DHT22;35622;52.008;5.426;2023-08-30T03:52:13;16.60;80.50
49731;DHT22;35622;52.008;5.426;2023-08-30T03:54:38;16.50;80.50
49731;DHT22;35622;52.008;5.426;2023-08-30T03:57:04;16.40;80.30
49731;DHT22;35622;52.008;5.426;2023-08-30T03:59:30;16.40;80.30
49731;DHT22;35622;52.008;5.426;2023-08-30T04:01:55;16.30;80.30
49731;DHT22;35622;52.008;5.426;2023-08-30T04:04:21;16.20;80.30
49731;DHT22;35622;52.008;5.426;2023-08-30T04:06:46;16.20;80.40
49731;DHT22;35622;52.008;5.426;2023-08-30T04:09:12;16.10;80.50
49731;DHT22;35622;52.008;5.426;2023-08-30T04:11:37;16.00;80.30
49731;DHT22;35622;52.008;5.426;2023-08-30T04:14:03;16.00;80.30
49731;DHT22;35622;52.008;5.426;2023-08-30T04:16:28;15.90;80.30
49731;DHT22;35622;52.008;5.426;2023-08-30T04:18:54;15.90;80.40
49731;DHT22;35622;52.008;5.426;2023-08-30T04:21:20;15.80;80.20
49731;DHT22;35622;52.008;5.426;2023-08-30T04:23:45;15.70;80.40
49731;DHT22;35622;52.008;5.426;2023-08-30T04:26:11;15.70;80.50
49731;DHT22;35622;52.008;5.426;2023-08-30T04:28:36;15.70;80.40
49731;DHT22;35622;52.008;5.426;2023-08-30T04:31:02;15.70;80.50
49731;DHT22;35622;52.008;5.426;2023-08-30T04:33:27;15.60;80.90
49731;DHT22;35622;52.008;5.426;2023-08-30T04:35:54;15.60;80.90
49731;DHT22;35622;52.008;5.426;2023-08-30T04:38:20;15.50;81.00
49731;DHT22;35622;52.008;5.426;2023-08-30T04:40:46;15.50;81.00
49731;DHT22;35622;52.008;5.426;2023-08-30T04:43:13;15.50;80.80
49731;DHT22;35622;52.008;5.426;2023-08-30T04:45:39;15.50;80.80
49731;DHT22;35622;52.008;5.426;2023-08-30T04:48:05;15.40;80.90
49731;DHT22;35622;52.008;5.426;2023-08-30T04:50:30;15.40;81.00
49731;DHT22;35622;52.008;5.426;2023-08-30T04:52:56;15.40;81.00
49731;DHT22;35622;52.008;5.426;2023-08-30T04:55:24;15.40;81.30
49731;DHT22;35622;52.008;5.426;2023-08-30T04:57:50;15.30;81.30
49731;DHT22;35622;52.008;5.426;2023-08-30T05:00:17;15.30;81.40
49731;DHT22;35622;52.008;5.426;2023-08-30T05:02:43;15.30;81.50
49731;DHT22;35622;52.008;5.426;2023-08-30T05:05:09;15.30;80.80
49731;DHT22;35622;52.008;5.426;2023-08-30T05:07:34;15.30;80.80
49731;DHT22;35622;52.008;5.426;2023-08-30T05:10:00;15.20;81.00
49731;DHT22;35622;52.008;5.426;2023-08-30T05:12:26;15.20;81.30
49731;DHT22;35622;52.008;5.426;2023-08-30T05:14:51;15.20;81.60
49731;DHT22;35622;52.008;5.426;2023-08-30T05:17:17;15.20;81.80
49731;DHT22;35622;52.008;5.426;2023-08-30T05:19:43;15.30;81.40
49731;DHT22;35622;52.008;5.426;2023-08-30T05:22:08;15.20;81.40
49731;DHT22;35622;52.008;5.426;2023-08-30T05:24:34;15.20;81.60
49731;DHT22;35622;52.008;5.426;2023-08-30T05:26:59;15.30;82.00
49731;DHT22;35622;52.008;5.426;2023-08-30T05:29:25;15.30;82.20
49731;DHT22;35622;52.008;5.426;2023-08-30T05:31:50;15.30;82.40
49731;DHT22;35622;52.008;5.426;2023-08-30T05:34:16;15.40;82.90
49731;DHT22;35622;52.008;5.426;2023-08-30T05:36:41;15.50;83.00
49731;DHT22;35622;52.008;5.426;2023-08-30T05:39:07;15.60;83.10
49731;DHT22;35622;52.008;5.426;2023-08-30T05:41:32;15.70;83.10
49731;DHT22;35622;52.008;5.426;2023-08-30T05:43:58;15.80;83.20
49731;DHT22;35622;52.008;5.426;2023-08-30T05:46:23;16.00;83.40
49731;DHT22;35622;52.008;5.426;2023-08-30T05:48:49;16.10;83.70
49731;DHT22;35622;52.008;5.426;2023-08-30T05:51:15;16.20;84.00
49731;DHT22;35622;52.008;5.426;2023-08-30T05:53:40;16.30;83.80
49731;DHT22;35622;52.008;5.426;2023-08-30T05:56:06;16.40;83.60
49731;DHT22;35622;52.008;5.426;2023-08-30T05:58:31;16.50;83.10
49731;DHT22;35622;52.008;5.426;2023-08-30T06:00:58;16.60;82.80
49731;DHT22;35622;52.008;5.426;2023-08-30T06:03:25;16.70;82.50
49731;DHT22;35622;52.008;5.426;2023-08-30T06:05:50;16.70;82.60
49731;DHT22;35622;52.008;5.426;2023-08-30T06:08:16;16.60;82.60
49731;DHT22;35622;52.008;5.426;2023-08-30T06:10:43;16.70;82.80
49731;DHT22;35622;52.008;5.426;2023-08-30T06:13:08;16.80;82.80
49731;DHT22;35622;52.008;5.426;2023-08-30T06:15:35;16.80;82.90
49731;DHT22;35622;52.008;5.426;2023-08-30T06:18:01;16.80;83.20
49731;DHT22;35622;52.008;5.426;2023-08-30T06:20:26;16.80;83.40
49731;DHT22;35622;52.008;5.426;2023-08-30T06:22:52;16.90;83.60
49731;DHT22;35622;52.008;5.426;2023-08-30T06:25:17;16.90;83.70
49731;DHT22;35622;52.008;5.426;2023-08-30T06:27:56;17.00;83.80
49731;DHT22;35622;52.008;5.426;2023-08-30T06:30:22;17.10;83.90
49731;DHT22;35622;52.008;5.426;2023-08-30T06:32:48;17.10;83.90
49731;DHT22;35622;52.008;5.426;2023-08-30T06:35:14;17.10;84.50
49731;DHT22;35622;52.008;5.426;2023-08-30T06:37:40;16.90;85.10
49731;DHT22;35622;52.008;5.426;2023-08-30T06:40:06;17.00;85.40
49731;DHT22;35622;52.008;5.426;2023-08-30T06:42:32;17.00;85.40
49731;DHT22;35622;52.008;5.426;2023-08-30T06:44:57;17.00;86.00
49731;DHT22;35622;52.008;5.426;2023-08-30T06:47:23;17.00;86.40
49731;DHT22;35622;52.008;5.426;2023-08-30T06:49:48;17.10;86.60
49731;DHT22;35622;52.008;5.426;2023-08-30T06:52:14;17.20;86.70
49731;DHT22;35622;52.008;5.426;2023-08-30T06:54:39;17.20;86.90
49731;DHT22;35622;52.008;5.426;2023-08-30T06:57:05;17.20;87.10
49731;DHT22;35622;52.008;5.426;2023-08-30T06:59:32;17.00;88.60
49731;DHT22;35622;52.008;5.426;2023-08-30T07:01:58;17.10;88.40
49731;DHT22;35622;52.008;5.426;2023-08-30T07:04:23;17.10;88.20
49731;DHT22;35622;52.008;5.426;2023-08-30T07:06:50;17.30;88.00
49731;DHT22;35622;52.008;5.426;2023-08-30T07:09:15;17.40;87.80
49731;DHT22;35622;52.008;5.426;2023-08-30T07:11:43;17.40;87.60
49731;DHT22;35622;52.008;5.426;2023-08-30T07:14:12;17.40;87.70
49731;DHT22;35622;52.008;5.426;2023-08-30T07:16:39;17.30;88.30
49731;DHT22;35622;52.008;5.426;2023-08-30T07:19:04;17.30;88.50
49731;DHT22;35622;52.008;5.426;2023-08-30T07:21:30;17.40;88.70
49731;DHT22;35622;52.008;5.426;2023-08-30T07:23:56;17.40;88.50
49731;DHT22;35622;52.008;5.426;2023-08-30T07:26:21;17.40;88.90
49731;DHT22;35622;52.008;5.426;2023-08-30T07:28:47;17.50;89.00
49731;DHT22;35622;52.008;5.426;2023-08-30T07:31:12;17.50;88.90
49731;DHT22;35622;52.008;5.426;2023-08-30T07:33:44;17.50;88.70
49731;DHT22;35622;52.008;5.426;2023-08-30T07:36:09;17.50;89.40
49731;DHT22;35622;52.008;5.426;2023-08-30T07:38:36;17.40;89.80
49731;DHT22;35622;52.008;5.426;2023-08-30T07:41:02;17.50;90.00
49731;DHT22;35622;52.008;5.426;2023-08-30T07:43:28;17.50;89.90
49731;DHT22;35622;52.008;5.426;2023-08-30T07:45:53;17.30;90.30
49731;DHT22;35622;52.008;5.426;2023-08-30T07:48:19;17.10;90.80
49731;DHT22;35622;52.008;5.426;2023-08-30T07:50:44;17.20;90.70
49731;DHT22;35622;52.008;5.426;2023-08-30T07:53:10;17.10;90.90
49731;DHT22;35622;52.008;5.426;2023-08-30T07:55:36;17.10;91.60
49731;DHT22;35622;52.008;5.426;2023-08-30T07:58:02;17.00;91.60
49731;DHT22;35622;52.008;5.426;2023-08-30T08:00:28;17.00;91.60
49731;DHT22;35622;52.008;5.426;2023-08-30T08:02:54;17.10;91.70
49731;DHT22;35622;52.008;5.426;2023-08-30T08:05:20;17.10;91.90
49731;DHT22;35622;52.008;5.426;2023-08-30T08:07:45;17.10;91.80
49731;DHT22;35622;52.008;5.426;2023-08-30T08:10:11;17.10;92.10
49731;DHT22;35622;52.008;5.426;2023-08-30T08:12:36;17.10;92.10
49731;DHT22;35622;52.008;5.426;2023-08-30T08:15:03;17.30;92.10
49731;DHT22;35622;52.008;5.426;2023-08-30T08:17:29;17.40;92.00
49731;DHT22;35622;52.008;5.426;2023-08-30T08:19:54;17.60;91.80
49731;DHT22;35622;52.008;5.426;2023-08-30T08:22:20;17.70;91.30
49731;DHT22;35622;52.008;5.426;2023-08-30T08:24:45;17.60;91.20
49731;DHT22;35622;52.008;5.426;2023-08-30T08:27:12;17.50;91.70
49731;DHT22;35622;52.008;5.426;2023-08-30T08:29:37;17.60;91.70
49731;DHT22;35622;52.008;5.426;2023-08-30T08:32:03;17.70;91.60
49731;DHT22;35622;52.008;5.426;2023-08-30T08:34:29;17.70;91.50
49731;DHT22;35622;52.008;5.426;2023-08-30T08:36:55;17.70;91.50
49731;DHT22;35622;52.008;5.426;2023-08-30T08:39:20;17.70;91.80
49731;DHT22;35622;52.008;5.426;2023-08-30T08:41:46;17.60;91.60
49731;DHT22;35622;52.008;5.426;2023-08-30T08:44:12;17.30;92.60
49731;DHT22;35622;52.008;5.426;2023-08-30T08:46:39;17.30;92.80
49731;DHT22;35622;52.008;5.426;2023-08-30T08:51:35;17.40;93.10
49731;DHT22;35622;52.008;5.426;2023-08-30T08:54:03;17.30;93.10
49731;DHT22;35622;52.008;5.426;2023-08-30T08:56:33;17.30;93.50
49731;DHT22;35622;52.008;5.426;2023-08-30T08:59:00;17.20;93.20
49731;DHT22;35622;52.008;5.426;2023-08-30T09:01:26;17.10;94.30
49731;DHT22;35622;52.008;5.426;2023-08-30T09:03:51;17.10;94.50
49731;DHT22;35622;52.008;5.426;2023-08-30T09:06:18;17.20;94.20
49731;DHT22;35622;52.008;5.426;2023-08-30T09:08:43;17.30;94.60
49731;DHT22;35622;52.008;5.426;2023-08-30T09:11:09;17.50;94.50
49731;DHT22;35622;52.008;5.426;2023-08-30T09:13:35;17.30;94.30
49731;DHT22;35622;52.008;5.426;2023-08-30T09:16:00;17.40;94.70
49731;DHT22;35622;52.008;5.426;2023-08-30T09:18:26;17.30;95.00
49731;DHT22;35622;52.008;5.426;2023-08-30T09:21:09;17.40;95.10
49731;DHT22;35622;52.008;5.426;2023-08-30T09:23:34;17.50;95.20
49731;DHT22;35622;52.008;5.426;2023-08-30T09:26:01;17.70;95.00
49731;DHT22;35622;52.008;5.426;2023-08-30T09:28:28;17.80;94.80
49731;DHT22;35622;52.008;5.426;2023-08-30T09:30:53;17.80;95.00
49731;DHT22;35622;52.008;5.426;2023-08-30T09:33:23;18.10;94.90
49731;DHT22;35622;52.008;5.426;2023-08-30T09:35:49;18.20;94.40
49731;DHT22;35622;52.008;5.426;2023-08-30T09:38:19;18.30;94.50
49731;DHT22;35622;52.008;5.426;2023-08-30T09:40:45;18.20;94.70
49731;DHT22;35622;52.008;5.426;2023-08-30T09:43:14;18.30;94.40
49731;DHT22;35622;52.008;5.426;2023-08-30T09:45:43;18.30;94.60
49731;DHT22;35622;52.008;5.426;2023-08-30T09:48:09;18.60;94.40
49731;DHT22;35622;52.008;5.426;2023-08-30T09:50:36;18.70;94.10
49731;DHT22;35622;52.008;5.426;2023-08-30T09:53:08;18.50;94.10
49731;DHT22;35622;52.008;5.426;2023-08-30T09:55:38;18.60;94.60
49731;DHT22;35622;52.008;5.426;2023-08-30T09:58:05;18.70;94.80
49731;DHT22;35622;52.008;5.426;2023-08-30T10:00:32;18.90;94.70
49731;DHT22;35622;52.008;5.426;2023-08-30T10:02:59;19.00;94.50
49731;DHT22;35622;52.008;5.426;2023-08-30T10:05:26;19.20;94.10
49731;DHT22;35622;52.008;5.426;2023-08-30T10:07:53;19.20;94.60
49731;DHT22;35622;52.008;5.426;2023-08-30T10:10:20;19.30;94.20
49731;DHT22;35622;52.008;5.426;2023-08-30T10:12:46;19.30;95.00
49731;DHT22;35622;52.008;5.426;2023-08-30T10:15:12;19.50;95.10
49731;DHT22;35622;52.008;5.426;2023-08-30T10:17:41;19.60;94.70
49731;DHT22;35622;52.008;5.426;2023-08-30T10:20:11;19.80;94.40
49731;DHT22;35622;52.008;5.426;2023-08-30T10:22:38;19.90;94.50
49731;DHT22;35622;52.008;5.426;2023-08-30T10:25:19;20.00;94.20
49731;DHT22;35622;52.008;5.426;2023-08-30T10:27:48;20.20;94.00
49731;DHT22;35622;52.008;5.426;2023-08-30T10:30:15;20.10;94.60
49731;DHT22;35622;52.008;5.426;2023-08-30T10:32:43;20.20;95.20
49731;DHT22;35622;52.008;5.426;2023-08-30T10:35:13;20.40;94.00
49731;DHT22;35622;52.008;5.426;2023-08-30T10:37:39;20.40;95.00
49731;DHT22;35622;52.008;5.426;2023-08-30T10:40:05;20.70;92.80
49731;DHT22;35622;52.008;5.426;2023-08-30T10:42:31;20.90;93.20
49731;DHT22;35622;52.008;5.426;2023-08-30T10:45:07;21.10;92.20
49731;DHT22;35622;52.008;5.426;2023-08-30T10:47:35;21.20;91.50
49731;DHT22;35622;52.008;5.426;2023-08-30T10:50:12;21.10;91.30
49731;DHT22;35622;52.008;5.426;2023-08-30T10:52:38;21.20;91.20
49731;DHT22;35622;52.008;5.426;2023-08-30T10:55:23;21.50;91.30
49731;DHT22;35622;52.008;5.426;2023-08-30T10:57:58;21.70;91.20
49731;DHT22;35622;52.008;5.426;2023-08-30T11:00:24;21.90;88.30
49731;DHT22;35622;52.008;5.426;2023-08-30T11:02:51;21.90;86.50
49731;DHT22;35622;52.008;5.426;2023-08-30T11:05:18;22.00;88.00
49731;DHT22;35622;52.008;5.426;2023-08-30T11:07:44;22.10;88.20
49731;DHT22;35622;52.008;5.426;2023-08-30T11:10:11;22.10;83.30
49731;DHT22;35622;52.008;5.426;2023-08-30T11:12:36;22.10;84.30
49731;DHT22;35622;52.008;5.426;2023-08-30T11:15:02;22.40;87.30
49731;DHT22;35622;52.008;5.426;2023-08-30T11:17:28;22.40;82.20
49731;DHT22;35622;52.008;5.426;2023-08-30T11:20:04;22.60;83.90
49731;DHT22;35622;52.008;5.426;2023-08-30T11:22:30;22.90;82.70
49731;DHT22;35622;52.008;5.426;2023-08-30T11:24:56;23.00;83.00
49731;DHT22;35622;52.008;5.426;2023-08-30T11:27:21;23.20;76.80
49731;DHT22;35622;52.008;5.426;2023-08-30T11:29:47;23.20;77.20
49731;DHT22;35622;52.008;5.426;2023-08-30T11:32:12;23.50;78.60
49731;DHT22;35622;52.008;5.426;2023-08-30T11:34:38;23.60;73.80
49731;DHT22;35622;52.008;5.426;2023-08-30T11:37:03;23.50;73.20
49731;DHT22;35622;52.008;5.426;2023-08-30T11:39:29;23.50;75.30
49731;DHT22;35622;52.008;5.426;2023-08-30T11:41:56;23.60;76.70
49731;DHT22;35622;52.008;5.426;2023-08-30T11:44:28;23.60;72.60
49731;DHT22;35622;52.008;5.426;2023-08-30T11:47:00;23.70;72.00
49731;DHT22;35622;52.008;5.426;2023-08-30T11:49:27;23.40;73.20
49731;DHT22;35622;52.008;5.426;2023-08-30T11:51:54;23.30;73.60
49731;DHT22;35622;52.008;5.426;2023-08-30T11:54:22;23.40;76.30
49731;DHT22;35622;52.008;5.426;2023-08-30T11:56:48;23.40;79.00
49731;DHT22;35622;52.008;5.426;2023-08-30T11:59:21;23.20;72.30
49731;DHT22;35622;52.008;5.426;2023-08-30T12:01:52;23.20;71.60
49731;DHT22;35622;52.008;5.426;2023-08-30T12:04:18;23.00;76.10
49731;DHT22;35622;52.008;5.426;2023-08-30T12:06:51;22.90;77.60
49731;DHT22;35622;52.008;5.426;2023-08-30T12:09:17;22.60;75.10
49731;DHT22;35622;52.008;5.426;2023-08-30T12:11:42;22.50;73.50
49731;DHT22;35622;52.008;5.426;2023-08-30T12:14:09;22.40;72.40
49731;DHT22;35622;52.008;5.426;2023-08-30T12:16:35;22.20;75.20
49731;DHT22;35622;52.008;5.426;2023-08-30T12:19:08;22.30;77.90
49731;DHT22;35622;52.008;5.426;2023-08-30T12:21:43;22.40;77.50
49731;DHT22;35622;52.008;5.426;2023-08-30T12:24:10;22.50;79.90
49731;DHT22;35622;52.008;5.426;2023-08-30T12:26:36;22.50;80.70
49731;DHT22;35622;52.008;5.426;2023-08-30T12:29:05;22.60;77.20
49731;DHT22;35622;52.008;5.426;2023-08-30T12:31:32;22.70;75.80
49731;DHT22;35622;52.008;5.426;2023-08-30T12:33:58;22.60;70.70
49731;DHT22;35622;52.008;5.426;2023-08-30T12:36:23;22.80;77.50
49731;DHT22;35622;52.008;5.426;2023-08-30T12:38:49;23.10;79.20
49731;DHT22;35622;52.008;5.426;2023-08-30T12:41:15;23.40;76.90
49731;DHT22;35622;52.008;5.426;2023-08-30T12:43:41;23.40;74.50
49731;DHT22;35622;52.008;5.426;2023-08-30T12:46:06;23.60;74.90
49731;DHT22;35622;52.008;5.426;2023-08-30T12:48:32;24.00;67.20
49731;DHT22;35622;52.008;5.426;2023-08-30T12:50:58;23.60;67.10
49731;DHT22;35622;52.008;5.426;2023-08-30T12:53:23;23.90;76.60
49731;DHT22;35622;52.008;5.426;2023-08-30T12:55:49;24.20;72.90
49731;DHT22;35622;52.008;5.426;2023-08-30T12:58:14;24.20;65.90
49731;DHT22;35622;52.008;5.426;2023-08-30T13:00:40;24.20;69.00
49731;DHT22;35622;52.008;5.426;2023-08-30T13:03:06;23.90;62.00
49731;DHT22;35622;52.008;5.426;2023-08-30T13:05:32;23.90;64.40
49731;DHT22;35622;52.008;5.426;2023-08-30T13:07:58;23.90;66.20
49731;DHT22;35622;52.008;5.426;2023-08-30T13:10:24;23.90;62.80
49731;DHT22;35622;52.008;5.426;2023-08-30T13:12:50;23.90;63.10
49731;DHT22;35622;52.008;5.426;2023-08-30T13:15:15;23.80;60.30
49731;DHT22;35622;52.008;5.426;2023-08-30T13:17:41;23.70;59.80
49731;DHT22;35622;52.008;5.426;2023-08-30T13:20:06;23.20;61.80
49731;DHT22;35622;52.008;5.426;2023-08-30T13:22:32;23.20;62.30
49731;DHT22;35622;52.008;5.426;2023-08-30T13:24:58;23.40;61.50
49731;DHT22;35622;52.008;5.426;2023-08-30T13:27:23;23.60;68.90
49731;DHT22;35622;52.008;5.426;2023-08-30T13:29:50;23.50;62.60
49731;DHT22;35622;52.008;5.426;2023-08-30T13:32:15;23.20;59.70
49731;DHT22;35622;52.008;5.426;2023-08-30T13:34:41;22.50;59.40
49731;DHT22;35622;52.008;5.426;2023-08-30T13:37:11;22.20;63.70
49731;DHT22;35622;52.008;5.426;2023-08-30T13:39:37;22.20;62.40
49731;DHT22;35622;52.008;5.426;2023-08-30T13:42:03;22.60;67.00
49731;DHT22;35622;52.008;5.426;2023-08-30T13:44:28;22.40;62.50
49731;DHT22;35622;52.008;5.426;2023-08-30T13:46:54;22.50;64.70
49731;DHT22;35622;52.008;5.426;2023-08-30T13:49:19;22.60;65.60
49731;DHT22;35622;52.008;5.426;2023-08-30T13:51:45;22.70;68.60
49731;DHT22;35622;52.008;5.426;2023-08-30T13:54:11;22.80;66.10
49731;DHT22;35622;52.008;5.426;2023-08-30T13:56:36;23.00;63.20
49731;DHT22;35622;52.008;5.426;2023-08-30T13:59:05;23.00;63.90
49731;DHT22;35622;52.008;5.426;2023-08-30T14:01:33;22.80;59.70
49731;DHT22;35622;52.008;5.426;2023-08-30T14:04:00;22.80;64.50
49731;DHT22;35622;52.008;5.426;2023-08-30T14:06:26;22.80;62.20
49731;DHT22;35622;52.008;5.426;2023-08-30T14:08:52;22.60;63.30
49731;DHT22;35622;52.008;5.426;2023-08-30T14:11:17;22.40;67.90
49731;DHT22;35622;52.008;5.426;2023-08-30T14:13:43;22.40;64.20
49731;DHT22;35622;52.008;5.426;2023-08-30T14:16:08;22.40;70.70
49731;DHT22;35622;52.008;5.426;2023-08-30T14:18:35;22.10;63.20
49731;DHT22;35622;52.008;5.426;2023-08-30T14:21:01;21.70;63.00
49731;DHT22;35622;52.008;5.426;2023-08-30T14:23:28;21.80;66.10
49731;DHT22;35622;52.008;5.426;2023-08-30T14:25:58;22.20;65.50
49731;DHT22;35622;52.008;5.426;2023-08-30T14:28:25;22.00;62.60
49731;DHT22;35622;52.008;5.426;2023-08-30T14:30:51;22.10;63.30
49731;DHT22;35622;52.008;5.426;2023-08-30T14:33:17;22.40;65.20
49731;DHT22;35622;52.008;5.426;2023-08-30T14:35:43;22.50;65.00
49731;DHT22;35622;52.008;5.426;2023-08-30T14:38:08;22.30;66.40
49731;DHT22;35622;52.008;5.426;2023-08-30T14:40:34;22.50;66.10
49731;DHT22;35622;52.008;5.426;2023-08-30T14:42:59;22.30;67.20
49731;DHT22;35622;52.008;5.426;2023-08-30T14:45:25;22.70;67.10
49731;DHT22;35622;52.008;5.426;2023-08-30T14:47:50;23.00;67.70
49731;DHT22;35622;52.008;5.426;2023-08-30T14:50:16;23.10;64.80
49731;DHT22;35622;52.008;5.426;2023-08-30T14:52:41;23.10;64.80
49731;DHT22;35622;52.008;5.426;2023-08-30T14:55:07;23.00;63.80
49731;DHT22;35622;52.008;5.426;2023-08-30T14:57:33;22.60;64.70
49731;DHT22;35622;52.008;5.426;2023-08-30T14:59:58;22.60;65.60
49731;DHT22;35622;52.008;5.426;2023-08-30T15:02:24;22.40;66.20
49731;DHT22;35622;52.008;5.426;2023-08-30T15:04:49;22.40;69.00
49731;DHT22;35622;52.008;5.426;2023-08-30T15:07:15;22.40;68.80
49731;DHT22;35622;52.008;5.426;2023-08-30T15:09:40;22.50;69.80
49731;DHT22;35622;52.008;5.426;2023-08-30T15:12:06;22.40;71.60
49731;DHT22;35622;52.008;5.426;2023-08-30T15:14:32;22.20;73.00
49731;DHT22;35622;52.008;5.426;2023-08-30T15:16:58;22.20;74.10
49731;DHT22;35622;52.008;5.426;2023-08-30T15:19:23;22.10;75.20
49731;DHT22;35622;52.008;5.426;2023-08-30T15:21:49;22.00;76.20
49731;DHT22;35622;52.008;5.426;2023-08-30T15:24:14;22.10;78.20
49731;DHT22;35622;52.008;5.426;2023-08-30T15:26:41;22.10;78.30
49731;DHT22;35622;52.008;5.426;2023-08-30T15:29:07;21.90;79.10
49731;DHT22;35622;52.008;5.426;2023-08-30T15:31:32;22.10;79.20
49731;DHT22;35622;52.008;5.426;2023-08-30T15:33:58;22.10;78.40